createdAt,value
2023-04-16T00:03:58.355Z,16.10
2023-04-16T00:09:01.604Z,15.02
2023-04-16T00:14:05.055Z,11.18
2023-04-16T00:19:07.868Z,12.68
2023-04-16T00:24:10.943Z,16.30
2023-04-16T00:29:13.591Z,15.93
2023-04-16T00:34:16.572Z,20.35
2023-04-16T00:39:19.578Z,13.73
2023-04-16T00:44:24.709Z,16.08
2023-04-16T00:49:30.198Z,13.30
2023-04-16T00:54:33.132Z,15.20
2023-04-16T00:59:36.142Z,21.27
2023-04-16T01:04:38.858Z,17.88
2023-04-16T01:09:42.059Z,18.50
2023-04-16T01:14:46.176Z,19.10
2023-04-16T01:19:48.980Z,13.35
2023-04-16T01:24:51.953Z,12.65
2023-04-16T01:29:56.546Z,20.45
2023-04-16T01:35:10.677Z,20.92
2023-04-16T01:40:13.513Z,9.93
2023-04-16T01:45:16.300Z,10.90
2023-04-16T01:50:20.466Z,11.75
2023-04-16T01:55:23.992Z,10.57
2023-04-16T02:00:26.916Z,11.25
2023-04-16T02:05:29.901Z,10.43
2023-04-16T02:10:33.715Z,9.55
2023-04-16T02:15:37.160Z,10.65
2023-04-16T02:20:44.790Z,9.57
2023-04-16T02:25:48.363Z,12.05
2023-04-16T02:30:52.076Z,15.85
2023-04-16T02:35:56.389Z,21.00
2023-04-16T02:40:59.633Z,16.98
2023-04-16T02:46:02.584Z,13.27
2023-04-16T02:51:06.201Z,14.05
2023-04-16T02:56:09.089Z,15.60
2023-04-16T03:01:12.099Z,12.70
2023-04-16T03:06:15.174Z,9.13
2023-04-16T03:11:17.858Z,10.95
2023-04-16T03:16:20.639Z,7.82
2023-04-16T03:21:23.605Z,7.30
2023-04-16T03:26:26.673Z,5.75
2023-04-16T03:31:30.438Z,7.35
2023-04-16T03:36:34.799Z,4.65
2023-04-16T03:41:37.770Z,3.63
2023-04-16T03:46:40.738Z,4.88
2023-04-16T03:51:43.692Z,4.07
2023-04-16T03:56:46.787Z,5.60
2023-04-16T04:01:49.777Z,4.32
2023-04-16T04:06:53.372Z,5.80
2023-04-16T04:11:56.508Z,7.80
2023-04-16T04:16:59.222Z,6.68
2023-04-16T04:22:02.092Z,11.45
2023-04-16T04:27:05.010Z,6.32
2023-04-16T04:32:08.689Z,7.57
2023-04-16T04:37:11.966Z,5.07
2023-04-16T04:42:19.186Z,7.00
2023-04-16T04:47:22.144Z,6.15
2023-04-16T04:52:24.836Z,11.77
2023-04-16T04:57:28.420Z,7.82
2023-04-16T05:02:31.566Z,10.88
2023-04-16T05:07:34.532Z,7.57
2023-04-16T05:12:37.460Z,6.28
2023-04-16T05:17:40.142Z,6.47
2023-04-16T05:22:42.988Z,5.13
2023-04-16T05:27:45.875Z,6.30
2023-04-16T05:32:48.744Z,5.00
2023-04-16T05:37:51.794Z,4.22
2023-04-16T05:42:54.452Z,6.43
2023-04-16T05:47:57.081Z,4.55
2023-04-16T05:52:59.915Z,5.15
2023-04-16T05:58:04.580Z,4.63
2023-04-16T06:03:07.524Z,4.63
2023-04-16T06:08:10.533Z,3.53
2023-04-16T06:13:13.409Z,3.30
2023-04-16T06:18:16.411Z,4.88
2023-04-16T06:23:19.309Z,4.03
2023-04-16T06:28:21.982Z,3.88
2023-04-16T06:33:24.855Z,4.13
2023-04-16T06:38:27.761Z,5.63
2023-04-16T06:43:32.124Z,3.38
2023-04-16T06:48:34.960Z,5.97
2023-04-16T06:53:38.241Z,5.47
2023-04-16T06:58:41.376Z,4.30
2023-04-16T07:03:45.052Z,3.33
2023-04-16T07:08:47.954Z,4.75
2023-04-16T07:13:51.473Z,3.03
2023-04-16T07:18:54.039Z,2.70
2023-04-16T07:23:56.768Z,2.38
2023-04-16T07:28:59.573Z,4.00
2023-04-16T07:34:04.070Z,3.35
2023-04-16T07:39:08.254Z,3.33
2023-04-16T07:44:11.515Z,4.78
2023-04-16T07:49:14.383Z,4.18
2023-04-16T07:54:17.216Z,5.18
2023-04-16T07:59:23.376Z,4.30
2023-04-16T08:04:27.023Z,10.57
2023-04-16T08:09:30.390Z,7.60
2023-04-16T08:14:33.449Z,6.15
2023-04-16T08:19:36.346Z,5.97
2023-04-16T08:24:39.023Z,5.65
2023-04-16T08:29:41.806Z,2.97
2023-04-16T08:34:45.475Z,4.82
2023-04-16T08:39:48.597Z,5.90
2023-04-16T08:44:56.364Z,7.20
2023-04-16T08:49:59.656Z,6.03
2023-04-16T08:55:12.341Z,8.80
2023-04-16T09:00:16.299Z,4.28
2023-04-16T09:05:20.975Z,3.08
2023-04-16T09:10:23.995Z,3.88
2023-04-16T09:15:27.263Z,5.57
2023-04-16T09:20:30.249Z,5.80
2023-04-16T09:25:35.298Z,5.68
2023-04-16T09:30:39.447Z,4.72
2023-04-16T09:35:52.549Z,3.22
2023-04-16T09:41:09.720Z,4.70
2023-04-16T09:46:13.792Z,3.28
2023-04-16T09:51:16.639Z,2.78
2023-04-16T09:56:25.437Z,4.25
2023-04-16T10:01:29.443Z,8.30
2023-04-16T10:06:32.353Z,4.80
2023-04-16T10:11:39.109Z,3.00
2023-04-16T10:16:42.534Z,3.88
2023-04-16T10:21:46.269Z,6.15
2023-04-16T10:26:52.785Z,3.45
2023-04-16T10:31:57.057Z,3.55
2023-04-16T10:37:02.335Z,2.58
2023-04-16T10:42:12.711Z,3.83
2023-04-16T10:47:15.961Z,3.50
2023-04-16T10:52:18.869Z,5.97
2023-04-16T10:57:23.502Z,5.88
2023-04-16T11:02:29.771Z,5.60
2023-04-16T11:07:36.209Z,3.85
2023-04-16T11:12:45.074Z,4.78
2023-04-16T11:17:52.282Z,4.43
2023-04-16T11:22:57.316Z,5.72
2023-04-16T11:28:00.286Z,3.88
2023-04-16T11:33:08.118Z,5.43
2023-04-16T11:38:11.259Z,4.05
2023-04-16T11:43:16.487Z,5.60
2023-04-16T11:48:19.310Z,4.55
2023-04-16T11:53:22.741Z,3.83
2023-04-16T11:58:26.020Z,4.63
2023-04-16T12:03:46.543Z,5.93
2023-04-16T12:08:49.432Z,4.20
2023-04-16T12:14:11.522Z,4.78
2023-04-16T12:19:14.315Z,3.78
2023-04-16T12:24:24.381Z,5.70
2023-04-16T12:29:28.278Z,4.07
2023-04-16T12:34:48.749Z,5.03
2023-04-16T12:39:52.551Z,2.80
2023-04-16T12:44:56.836Z,3.28
2023-04-16T12:49:59.910Z,3.22
2023-04-16T12:55:03.904Z,2.88
2023-04-16T13:00:08.770Z,5.18
2023-04-16T13:05:11.771Z,2.03
2023-04-16T13:10:14.532Z,5.40
2023-04-16T13:15:17.213Z,4.90
2023-04-16T13:20:20.755Z,3.10
2023-04-16T13:25:24.742Z,4.95
2023-04-16T13:30:29.585Z,5.03
2023-04-16T13:35:33.448Z,5.53
2023-04-16T13:40:36.190Z,2.58
2023-04-16T13:45:39.214Z,4.57
2023-04-16T13:50:42.197Z,3.75
2023-04-16T13:55:45.252Z,4.72
2023-04-16T14:00:48.378Z,2.80
2023-04-16T14:05:51.335Z,3.67
2023-04-16T14:10:55.617Z,3.45
2023-04-16T14:21:02.547Z,2.42
2023-04-16T14:26:05.597Z,6.63
2023-04-16T14:31:08.366Z,3.78
2023-04-16T14:36:11.213Z,3.13
2023-04-16T14:41:14.197Z,7.68
2023-04-16T14:46:18.296Z,13.25
2023-04-16T14:51:21.278Z,7.80
2023-04-16T14:56:24.276Z,13.35
2023-04-16T15:01:27.353Z,11.20
2023-04-16T15:06:30.162Z,15.00
2023-04-16T15:11:33.193Z,10.20
2023-04-16T15:16:36.125Z,18.92
2023-04-16T15:21:38.890Z,14.32
2023-04-16T15:26:41.492Z,9.23
2023-04-16T15:31:44.493Z,6.07
2023-04-16T15:36:48.367Z,7.13
2023-04-16T15:46:57.084Z,11.25
2023-04-16T15:52:00.772Z,15.13
2023-04-16T15:57:03.679Z,10.70
2023-04-16T16:02:06.959Z,15.88
2023-04-16T16:07:09.721Z,13.52
2023-04-16T16:12:12.487Z,12.95
2023-04-16T16:17:16.918Z,11.25
2023-04-16T16:22:20.929Z,11.30
2023-04-16T16:27:24.004Z,15.02
2023-04-16T16:32:27.298Z,10.73
2023-04-16T16:37:30.324Z,12.82
2023-04-16T16:42:33.100Z,15.43
2023-04-16T16:47:35.929Z,12.70
2023-04-16T16:52:39.281Z,14.15
2023-04-16T16:57:43.242Z,11.38
2023-04-16T17:02:46.868Z,15.38
2023-04-16T17:07:49.666Z,12.95
2023-04-16T17:12:52.433Z,11.85
2023-04-16T17:17:55.349Z,18.02
2023-04-16T17:22:59.688Z,16.58
2023-04-16T17:28:03.384Z,12.40
2023-04-16T17:33:08.887Z,16.63
2023-04-16T17:38:12.041Z,15.02
2023-04-16T17:43:17.040Z,20.40
2023-04-16T17:48:19.757Z,20.90
2023-04-16T17:53:22.746Z,18.83
2023-04-16T17:58:26.719Z,24.30
2023-04-16T18:03:30.063Z,15.98
2023-04-16T18:08:34.051Z,18.63
2023-04-16T18:13:36.633Z,12.55
2023-04-16T18:18:39.382Z,14.57
2023-04-16T18:23:42.153Z,17.90
2023-04-16T18:28:45.422Z,14.10
2023-04-16T18:33:55.279Z,12.07
2023-04-16T18:39:02.479Z,11.38
2023-04-16T18:44:06.576Z,15.38
2023-04-16T18:49:09.539Z,13.25
2023-04-16T18:54:12.445Z,19.75
2023-04-16T18:59:15.355Z,16.17
2023-04-16T19:04:18.049Z,13.80
2023-04-16T19:09:20.910Z,15.85
2023-04-16T19:14:23.734Z,15.02
2023-04-16T19:19:27.111Z,15.70
2023-04-16T19:24:30.874Z,13.27
2023-04-16T19:29:35.887Z,13.88
2023-04-16T19:34:57.308Z,18.08
2023-04-16T19:40:00.066Z,12.60
2023-04-16T19:45:03.578Z,9.77
2023-04-16T19:50:07.963Z,10.30
2023-04-16T19:55:10.979Z,10.63
2023-04-16T20:00:14.422Z,10.07
2023-04-16T20:05:35.752Z,8.32
2023-04-16T20:10:38.544Z,9.43
2023-04-16T20:15:41.343Z,18.88
2023-04-16T20:20:43.974Z,12.73
2023-04-16T20:25:46.996Z,15.77
2023-04-16T20:30:51.133Z,15.27
2023-04-16T20:35:53.889Z,16.00
2023-04-16T20:41:16.986Z,11.77
2023-04-16T20:46:24.540Z,9.55
2023-04-16T20:51:30.226Z,12.27
2023-04-16T20:56:33.040Z,9.05
2023-04-16T21:01:36.295Z,8.80
2023-04-16T21:06:43.234Z,19.60
2023-04-16T21:11:46.203Z,13.65
2023-04-16T21:16:48.892Z,13.07
2023-04-16T21:21:53.853Z,17.08
2023-04-16T21:26:57.592Z,21.08
2023-04-16T21:32:00.403Z,22.10
2023-04-16T21:37:03.188Z,26.83
2023-04-16T21:42:06.113Z,27.98
2023-04-16T21:47:08.719Z,27.40
2023-04-16T21:52:18.516Z,26.05
2023-04-16T21:57:21.302Z,30.75
2023-04-16T22:02:24.204Z,36.00
2023-04-16T22:07:27.386Z,32.55
2023-04-16T22:12:30.803Z,28.20
2023-04-16T22:17:34.609Z,26.85
2023-04-16T22:22:37.409Z,19.83
2023-04-16T22:27:40.845Z,28.23
2023-04-16T22:32:43.621Z,26.05
2023-04-16T22:37:46.773Z,25.60
2023-04-16T22:42:50.533Z,22.95
2023-04-16T22:47:53.710Z,19.67
2023-04-16T22:52:56.518Z,20.98
2023-04-16T22:57:59.079Z,24.33
2023-04-16T23:03:02.179Z,19.60
2023-04-16T23:08:05.519Z,16.30
2023-04-16T23:13:08.288Z,15.27
2023-04-16T23:18:11.169Z,13.85
2023-04-16T23:23:13.950Z,11.90
2023-04-16T23:28:16.762Z,14.82
2023-04-16T23:33:19.353Z,15.77
2023-04-16T23:38:21.865Z,15.10
2023-04-16T23:43:24.716Z,13.20
2023-04-16T23:48:27.358Z,14.65
2023-04-16T23:53:30.055Z,13.60
2023-04-16T23:58:32.687Z,16.02
